Terminal Aerodrome Forecast
Issued by NWS

Home | Current Version | Previous Version | Text Only | Print | Product List | Glossary Off
Versions: 1 2 3 4 5 6 7 8 9 10 11 12 13 14 15

000
FTUS43 KDVN 232300
TAFBRL
TAF
KBRL 232326Z 2400/2424 11010KT P6SM -RA OVC100
     FM240300 14012G19KT P6SM VCSH BKN100
     FM241800 17011KT 4SM -SHRA BR VCTS OVC030CB=

USA.gov is the U.S. government's official web portal to all federal, state and local government web resources and services.